Westfield, Iowa
Current Conditions -  °F | °C
As of 10:55 AM on Saturday 22 Nov 2014 (Local Time) from KLRJ Reporting Station
Haze Haze  
Wind Chill: 29°   Ceiling: 500
Heat Index: 37°   Visibility: 3mi
Dew Point: 37°   Wind: 13mph
Humidity: 100%   Direction: 190°S
Pressure: 29.75"   Gusts: NA
Location:  42.76°N, 96.61°W
Report Text: KLRJ 221655Z AUTO 19011KT 3SM BR OVC005 03/03 A2975 RMK AO2
Loading
Personal Weather Stations






























Interactive Weather Map New forecast layout! Learn more

10-Day Weather Forecast

Advertisements
Track Severe Weather on mobile